sensor_id;sensor_type;location;lat;lon;timestamp;pressure;altitude;pressure_sealevel;temperature;humidity
72925;BME280;61070;50.794;7.054;2022-09-01T00:02:17;101359.00;;;17.66;62.14
72925;BME280;61070;50.794;7.054;2022-09-01T00:04:44;101357.28;;;17.64;62.62
72925;BME280;61070;50.794;7.054;2022-09-01T00:07:11;101354.06;;;17.53;62.54
72925;BME280;61070;50.794;7.054;2022-09-01T00:09:37;101358.75;;;17.46;63.20
72925;BME280;61070;50.794;7.054;2022-09-01T00:12:05;101358.19;;;17.35;64.12
72925;BME280;61070;50.794;7.054;2022-09-01T00:14:35;101362.25;;;17.17;64.88
72925;BME280;61070;50.794;7.054;2022-09-01T00:17:05;101367.91;;;17.06;64.93
72925;BME280;61070;50.794;7.054;2022-09-01T00:19:32;101367.94;;;17.05;64.84
72925;BME280;61070;50.794;7.054;2022-09-01T00:21:58;101376.03;;;17.03;65.60
72925;BME280;61070;50.794;7.054;2022-09-01T00:24:25;101371.72;;;16.98;66.08
72925;BME280;61070;50.794;7.054;2022-09-01T00:26:51;101376.19;;;16.97;66.31
72925;BME280;61070;50.794;7.054;2022-09-01T00:29:17;101375.34;;;16.95;66.32
72925;BME280;61070;50.794;7.054;2022-09-01T00:31:42;101380.75;;;16.94;66.44
72925;BME280;61070;50.794;7.054;2022-09-01T00:34:08;101380.31;;;16.78;67.29
72925;BME280;61070;50.794;7.054;2022-09-01T00:36:33;101378.69;;;16.71;67.38
72925;BME280;61070;50.794;7.054;2022-09-01T00:38:59;101377.97;;;16.63;67.38
72925;BME280;61070;50.794;7.054;2022-09-01T00:41:28;101377.91;;;16.66;67.13
72925;BME280;61070;50.794;7.054;2022-09-01T00:43:57;101377.50;;;16.47;67.31
72925;BME280;61070;50.794;7.054;2022-09-01T00:46:32;101371.91;;;16.56;66.67
72925;BME280;61070;50.794;7.054;2022-09-01T00:49:08;101371.88;;;16.57;66.80
72925;BME280;61070;50.794;7.054;2022-09-01T00:51:36;101376.19;;;16.63;66.83
72925;BME280;61070;50.794;7.054;2022-09-01T00:54:04;101378.75;;;16.69;66.54
72925;BME280;61070;50.794;7.054;2022-09-01T00:56:31;101379.38;;;16.79;65.74
72925;BME280;61070;50.794;7.054;2022-09-01T00:58:58;101362.22;;;16.86;65.67
72925;BME280;61070;50.794;7.054;2022-09-01T01:01:25;101371.97;;;16.88;64.95
72925;BME280;61070;50.794;7.054;2022-09-01T01:03:50;101371.06;;;16.90;64.85
72925;BME280;61070;50.794;7.054;2022-09-01T01:06:17;101363.81;;;16.93;64.32
72925;BME280;61070;50.794;7.054;2022-09-01T01:08:46;101366.28;;;17.01;63.55
72925;BME280;61070;50.794;7.054;2022-09-01T01:11:24;101362.75;;;17.00;63.51
72925;BME280;61070;50.794;7.054;2022-09-01T01:13:57;101365.47;;;16.97;63.08
72925;BME280;61070;50.794;7.054;2022-09-01T01:16:25;101363.72;;;16.96;63.48
72925;BME280;61070;50.794;7.054;2022-09-01T01:18:51;101367.31;;;16.95;63.21
72925;BME280;61070;50.794;7.054;2022-09-01T01:21:41;101370.78;;;17.00;63.36
72925;BME280;61070;50.794;7.054;2022-09-01T01:24:35;101370.84;;;16.97;63.54
72925;BME280;61070;50.794;7.054;2022-09-01T01:27:00;101378.31;;;16.84;63.73
72925;BME280;61070;50.794;7.054;2022-09-01T01:29:30;101368.72;;;16.77;64.17
72925;BME280;61070;50.794;7.054;2022-09-01T01:31:56;101367.94;;;16.72;64.65
72925;BME280;61070;50.794;7.054;2022-09-01T01:34:22;101379.53;;;16.73;64.45
72925;BME280;61070;50.794;7.054;2022-09-01T01:36:49;101370.81;;;16.63;64.88
72925;BME280;61070;50.794;7.054;2022-09-01T01:39:18;101378.06;;;16.59;64.99
72925;BME280;61070;50.794;7.054;2022-09-01T01:41:45;101374.50;;;16.59;65.46
72925;BME280;61070;50.794;7.054;2022-09-01T01:44:15;101371.88;;;16.57;65.67
72925;BME280;61070;50.794;7.054;2022-09-01T01:46:44;101369.13;;;16.60;65.46
72925;BME280;61070;50.794;7.054;2022-09-01T01:49:11;101367.38;;;16.59;65.35
72925;BME280;61070;50.794;7.054;2022-09-01T01:51:44;101365.59;;;16.58;65.26
72925;BME280;61070;50.794;7.054;2022-09-01T01:54:12;101371.97;;;16.54;65.04
72925;BME280;61070;50.794;7.054;2022-09-01T01:56:37;101373.69;;;16.57;65.01
72925;BME280;61070;50.794;7.054;2022-09-01T01:59:07;101378.00;;;16.61;64.63
72925;BME280;61070;50.794;7.054;2022-09-01T02:01:34;101370.19;;;16.53;65.12
72925;BME280;61070;50.794;7.054;2022-09-01T02:04:01;101367.44;;;16.56;64.96
72925;BME280;61070;50.794;7.054;2022-09-01T02:06:32;101373.75;;;16.54;65.03
72925;BME280;61070;50.794;7.054;2022-09-01T02:08:58;101380.81;;;16.56;64.87
72925;BME280;61070;50.794;7.054;2022-09-01T02:11:27;101378.38;;;16.47;65.53
72925;BME280;61070;50.794;7.054;2022-09-01T02:13:53;101372.94;;;16.50;65.58
72925;BME280;61070;50.794;7.054;2022-09-01T02:16:27;101371.34;;;16.43;65.57
72925;BME280;61070;50.794;7.054;2022-09-01T02:18:52;101376.66;;;16.45;65.64
72925;BME280;61070;50.794;7.054;2022-09-01T02:21:21;101379.22;;;16.49;65.28
72925;BME280;61070;50.794;7.054;2022-09-01T02:23:50;101381.88;;;16.49;65.24
72925;BME280;61070;50.794;7.054;2022-09-01T02:26:21;101387.16;;;16.52;65.36
72925;BME280;61070;50.794;7.054;2022-09-01T02:28:51;101378.34;;;16.49;65.60
72925;BME280;61070;50.794;7.054;2022-09-01T02:31:18;101373.25;;;16.38;66.19
72925;BME280;61070;50.794;7.054;2022-09-01T02:33:44;101380.47;;;16.35;66.61
72925;BME280;61070;50.794;7.054;2022-09-01T02:36:12;101376.16;;;16.29;66.77
72925;BME280;61070;50.794;7.054;2022-09-01T02:38:40;101373.38;;;16.34;66.38
72925;BME280;61070;50.794;7.054;2022-09-01T02:41:11;101370.66;;;16.35;66.45
72925;BME280;61070;50.794;7.054;2022-09-01T02:43:37;101377.81;;;16.35;66.11
72925;BME280;61070;50.794;7.054;2022-09-01T02:46:04;101377.00;;;16.31;66.18
72925;BME280;61070;50.794;7.054;2022-09-01T02:48:36;101377.84;;;16.33;66.13
72925;BME280;61070;50.794;7.054;2022-09-01T02:51:04;101379.59;;;16.34;66.57
72925;BME280;61070;50.794;7.054;2022-09-01T02:53:31;101376.09;;;16.32;66.26
72925;BME280;61070;50.794;7.054;2022-09-01T02:55:59;101378.81;;;16.29;66.55
72925;BME280;61070;50.794;7.054;2022-09-01T02:58:25;101371.72;;;16.28;66.77
72925;BME280;61070;50.794;7.054;2022-09-01T03:00:53;101374.47;;;16.25;66.27
72925;BME280;61070;50.794;7.054;2022-09-01T03:03:19;101370.94;;;16.24;66.36
72925;BME280;61070;50.794;7.054;2022-09-01T03:05:46;101373.69;;;16.21;66.16
72925;BME280;61070;50.794;7.054;2022-09-01T03:08:12;101374.63;;;16.19;66.24
72925;BME280;61070;50.794;7.054;2022-09-01T03:10:41;101374.69;;;16.16;66.31
72925;BME280;61070;50.794;7.054;2022-09-01T03:13:13;101368.47;;;16.15;66.25
72925;BME280;61070;50.794;7.054;2022-09-01T03:15:39;101374.75;;;16.14;66.21
72925;BME280;61070;50.794;7.054;2022-09-01T03:18:06;101364.16;;;16.10;66.12
72925;BME280;61070;50.794;7.054;2022-09-01T03:20:33;101368.66;;;16.08;65.90
72925;BME280;61070;50.794;7.054;2022-09-01T03:22:59;101362.41;;;16.09;65.83
72925;BME280;61070;50.794;7.054;2022-09-01T03:25:25;101369.59;;;16.05;65.77
72925;BME280;61070;50.794;7.054;2022-09-01T03:27:53;101372.34;;;16.02;65.87
72925;BME280;61070;50.794;7.054;2022-09-01T03:30:19;101372.53;;;15.94;66.31
72925;BME280;61070;50.794;7.054;2022-09-01T03:32:45;101366.63;;;15.80;67.04
72925;BME280;61070;50.794;7.054;2022-09-01T03:35:11;101360.53;;;15.75;67.40
72925;BME280;61070;50.794;7.054;2022-09-01T03:37:37;101368.53;;;15.75;67.38
72925;BME280;61070;50.794;7.054;2022-09-01T03:40:05;101367.00;;;15.65;67.68
72925;BME280;61070;50.794;7.054;2022-09-01T03:42:30;101365.22;;;15.64;67.55
72925;BME280;61070;50.794;7.054;2022-09-01T03:44:56;101365.34;;;15.56;68.15
72925;BME280;61070;50.794;7.054;2022-09-01T03:47:22;101367.41;;;15.43;68.49
72925;BME280;61070;50.794;7.054;2022-09-01T03:49:49;101367.53;;;15.37;68.96
72925;BME280;61070;50.794;7.054;2022-09-01T03:52:16;101363.22;;;15.32;69.61
72925;BME280;61070;50.794;7.054;2022-09-01T03:54:41;101367.75;;;15.27;69.81
72925;BME280;61070;50.794;7.054;2022-09-01T03:57:08;101358.81;;;15.28;69.92
72925;BME280;61070;50.794;7.054;2022-09-01T03:59:34;101358.97;;;15.22;69.89
72925;BME280;61070;50.794;7.054;2022-09-01T04:02:00;101350.09;;;15.21;69.80
72925;BME280;61070;50.794;7.054;2022-09-01T04:04:27;101364.22;;;15.25;70.00
72925;BME280;61070;50.794;7.054;2022-09-01T04:06:55;101361.66;;;15.20;69.82
72925;BME280;61070;50.794;7.054;2022-09-01T04:09:21;101355.41;;;15.21;70.16
72925;BME280;61070;50.794;7.054;2022-09-01T04:11:46;101362.63;;;15.16;70.04
72925;BME280;61070;50.794;7.054;2022-09-01T04:14:13;101360.09;;;15.10;70.50
72925;BME280;61070;50.794;7.054;2022-09-01T04:16:39;101365.50;;;15.07;70.09
72925;BME280;61070;50.794;7.054;2022-09-01T04:19:24;101357.53;;;15.04;70.23
72925;BME280;61070;50.794;7.054;2022-09-01T04:21:56;101361.16;;;15.01;70.58
72925;BME280;61070;50.794;7.054;2022-09-01T04:24:24;101360.28;;;15.01;70.58
72925;BME280;61070;50.794;7.054;2022-09-01T04:26:54;101360.28;;;15.01;70.29
72925;BME280;61070;50.794;7.054;2022-09-01T04:29:21;101365.56;;;15.02;70.46
72925;BME280;61070;50.794;7.054;2022-09-01T04:31:55;101359.44;;;14.99;70.47
72925;BME280;61070;50.794;7.054;2022-09-01T04:34:22;101370.91;;;15.02;70.58
72925;BME280;61070;50.794;7.054;2022-09-01T04:36:49;101363.00;;;14.98;70.74
72925;BME280;61070;50.794;7.054;2022-09-01T04:39:18;101360.31;;;14.99;70.84
72925;BME280;61070;50.794;7.054;2022-09-01T04:41:44;101364.72;;;15.00;70.74
72925;BME280;61070;50.794;7.054;2022-09-01T04:44:15;101370.03;;;15.02;70.88
72925;BME280;61070;50.794;7.054;2022-09-01T04:46:43;101379.06;;;14.96;71.10
72925;BME280;61070;50.794;7.054;2022-09-01T04:49:13;101375.53;;;14.93;70.95
72925;BME280;61070;50.794;7.054;2022-09-01T04:51:45;101367.84;;;14.77;71.76
72925;BME280;61070;50.794;7.054;2022-09-01T04:54:11;101375.13;;;14.68;72.04
72925;BME280;61070;50.794;7.054;2022-09-01T04:56:40;101376.06;;;14.65;72.40
72925;BME280;61070;50.794;7.054;2022-09-01T04:59:07;101374.28;;;14.66;72.45
72925;BME280;61070;50.794;7.054;2022-09-01T05:01:35;101375.13;;;14.68;72.13
72925;BME280;61070;50.794;7.054;2022-09-01T05:04:08;101369.69;;;14.74;71.89
72925;BME280;61070;50.794;7.054;2022-09-01T05:06:48;101381.16;;;14.77;72.93
72925;BME280;61070;50.794;7.054;2022-09-01T05:09:20;101372.19;;;14.81;72.38
72925;BME280;61070;50.794;7.054;2022-09-01T05:11:45;101365.91;;;14.85;72.26
72925;BME280;61070;50.794;7.054;2022-09-01T05:14:13;101367.56;;;14.91;72.18
72925;BME280;61070;50.794;7.054;2022-09-01T05:16:38;101366.44;;;15.03;71.81
72925;BME280;61070;50.794;7.054;2022-09-01T05:19:08;101367.16;;;15.12;71.76
72925;BME280;61070;50.794;7.054;2022-09-01T05:21:40;101367.94;;;15.19;71.47
72925;BME280;61070;50.794;7.054;2022-09-01T05:24:09;101375.91;;;15.21;71.58
72925;BME280;61070;50.794;7.054;2022-09-01T05:26:35;101364.41;;;15.15;72.05
72925;BME280;61070;50.794;7.054;2022-09-01T05:29:05;101374.88;;;15.26;71.62
72925;BME280;61070;50.794;7.054;2022-09-01T05:31:40;101377.41;;;15.34;71.35
72925;BME280;61070;50.794;7.054;2022-09-01T05:34:06;101374.63;;;15.38;71.47
72925;BME280;61070;50.794;7.054;2022-09-01T05:36:35;101385.16;;;15.46;71.45
72925;BME280;61070;50.794;7.054;2022-09-01T05:39:03;101383.28;;;15.50;70.67
72925;BME280;61070;50.794;7.054;2022-09-01T05:41:29;101385.13;;;15.48;71.89
72925;BME280;61070;50.794;7.054;2022-09-01T05:43:54;101393.94;;;15.53;71.98
72925;BME280;61070;50.794;7.054;2022-09-01T05:46:23;101391.06;;;15.63;70.79
72925;BME280;61070;50.794;7.054;2022-09-01T05:48:51;101386.53;;;15.67;70.45
72925;BME280;61070;50.794;7.054;2022-09-01T05:51:22;101395.53;;;15.63;71.05
72925;BME280;61070;50.794;7.054;2022-09-01T05:53:51;101395.50;;;15.64;70.81
72925;BME280;61070;50.794;7.054;2022-09-01T05:56:18;101398.25;;;15.60;71.46
72925;BME280;61070;50.794;7.054;2022-09-01T05:58:45;101391.81;;;15.68;71.84
72925;BME280;61070;50.794;7.054;2022-09-01T06:01:19;101392.84;;;15.61;71.70
72925;BME280;61070;50.794;7.054;2022-09-01T06:03:50;101395.50;;;15.64;71.68
72925;BME280;61070;50.794;7.054;2022-09-01T06:06:19;101386.38;;;15.73;70.72
72925;BME280;61070;50.794;7.054;2022-09-01T06:08:47;101394.09;;;15.85;69.58
72925;BME280;61070;50.794;7.054;2022-09-01T06:11:13;101391.31;;;15.91;70.51
72925;BME280;61070;50.794;7.054;2022-09-01T06:13:41;101402.59;;;16.04;69.38
72925;BME280;61070;50.794;7.054;2022-09-01T06:16:08;101398.03;;;16.08;68.39
72925;BME280;61070;50.794;7.054;2022-09-01T06:18:35;101403.22;;;16.15;68.28
72925;BME280;61070;50.794;7.054;2022-09-01T06:21:03;101406.69;;;16.19;67.45
72925;BME280;61070;50.794;7.054;2022-09-01T06:23:29;101401.25;;;16.23;66.89
72925;BME280;61070;50.794;7.054;2022-09-01T06:25:55;101407.53;;;16.22;66.91
72925;BME280;61070;50.794;7.054;2022-09-01T06:28:21;101407.53;;;16.22;67.11
72925;BME280;61070;50.794;7.054;2022-09-01T06:30:48;101416.28;;;16.27;67.19
72925;BME280;61070;50.794;7.054;2022-09-01T06:33:15;101413.53;;;16.30;66.25
72925;BME280;61070;50.794;7.054;2022-09-01T06:35:43;101409.72;;;16.42;66.34
72925;BME280;61070;50.794;7.054;2022-09-01T06:38:10;101405.13;;;16.47;66.27
72925;BME280;61070;50.794;7.054;2022-09-01T06:40:36;101404.84;;;16.58;65.33
72925;BME280;61070;50.794;7.054;2022-09-01T06:43:03;101414.44;;;16.67;64.62
72925;BME280;61070;50.794;7.054;2022-09-01T06:45:34;101417.75;;;16.78;63.69
72925;BME280;61070;50.794;7.054;2022-09-01T06:48:03;101411.53;;;16.77;63.12
72925;BME280;61070;50.794;7.054;2022-09-01T06:50:28;101413.00;;;16.89;62.91
72925;BME280;61070;50.794;7.054;2022-09-01T06:52:54;101420.03;;;16.93;62.54
72925;BME280;61070;50.794;7.054;2022-09-01T06:55:25;101411.56;;;17.08;62.30
72925;BME280;61070;50.794;7.054;2022-09-01T06:57:55;101417.78;;;17.10;61.48
72925;BME280;61070;50.794;7.054;2022-09-01T07:00:22;101416.69;;;17.17;60.99
72925;BME280;61070;50.794;7.054;2022-09-01T07:02:53;101416.72;;;17.16;60.80
72925;BME280;61070;50.794;7.054;2022-09-01T07:05:20;101421.94;;;17.22;61.87
72925;BME280;61070;50.794;7.054;2022-09-01T07:07:52;101417.72;;;17.44;60.85
72925;BME280;61070;50.794;7.054;2022-09-01T07:10:26;101415.94;;;17.43;60.03
72925;BME280;61070;50.794;7.054;2022-09-01T07:12:53;101423.44;;;17.31;60.38
72925;BME280;61070;50.794;7.054;2022-09-01T07:15:21;101417.94;;;17.37;60.37
72925;BME280;61070;50.794;7.054;2022-09-01T07:17:49;101422.22;;;17.42;60.51
72925;BME280;61070;50.794;7.054;2022-09-01T07:20:15;101420.66;;;17.65;59.17
72925;BME280;61070;50.794;7.054;2022-09-01T07:22:41;101419.72;;;17.69;59.67
72925;BME280;61070;50.794;7.054;2022-09-01T07:25:08;101420.34;;;17.77;58.80
72925;BME280;61070;50.794;7.054;2022-09-01T07:27:37;101417.47;;;17.83;58.56
72925;BME280;61070;50.794;7.054;2022-09-01T07:30:07;101408.91;;;18.00;58.33
72925;BME280;61070;50.794;7.054;2022-09-01T07:32:36;101410.69;;;18.01;57.75
72925;BME280;61070;50.794;7.054;2022-09-01T07:35:03;101408.72;;;18.06;57.73
72925;BME280;61070;50.794;7.054;2022-09-01T07:37:31;101405.59;;;18.20;57.33
72925;BME280;61070;50.794;7.054;2022-09-01T07:40:02;101417.13;;;18.23;57.45
72925;BME280;61070;50.794;7.054;2022-09-01T07:42:28;101413.19;;;18.33;57.12
72925;BME280;61070;50.794;7.054;2022-09-01T07:44:54;101417.97;;;18.52;56.56
72925;BME280;61070;50.794;7.054;2022-09-01T07:47:20;101410.75;;;18.54;57.07
72925;BME280;61070;50.794;7.054;2022-09-01T07:49:46;101408.19;;;18.77;55.75
72925;BME280;61070;50.794;7.054;2022-09-01T07:52:12;101400.19;;;18.76;54.78
72925;BME280;61070;50.794;7.054;2022-09-01T07:54:37;101405.88;;;18.93;55.36
72925;BME280;61070;50.794;7.054;2022-09-01T07:57:03;101411.94;;;18.98;54.65
72925;BME280;61070;50.794;7.054;2022-09-01T07:59:28;101409.03;;;19.04;54.12
72925;BME280;61070;50.794;7.054;2022-09-01T08:01:55;101404.59;;;19.28;53.79
72925;BME280;61070;50.794;7.054;2022-09-01T08:04:21;101406.47;;;19.26;53.21
72925;BME280;61070;50.794;7.054;2022-09-01T08:06:50;101407.38;;;19.25;52.60
72925;BME280;61070;50.794;7.054;2022-09-01T08:09:16;101404.53;;;19.30;52.46
72925;BME280;61070;50.794;7.054;2022-09-01T08:11:41;101404.88;;;19.44;53.07
72925;BME280;61070;50.794;7.054;2022-09-01T08:14:06;101410.78;;;19.55;52.17
72925;BME280;61070;50.794;7.054;2022-09-01T08:16:32;101408.97;;;19.56;51.67
72925;BME280;61070;50.794;7.054;2022-09-01T08:18:58;101397.06;;;19.63;51.65
72925;BME280;61070;50.794;7.054;2022-09-01T08:21:24;101407.94;;;19.60;51.19
72925;BME280;61070;50.794;7.054;2022-09-01T08:23:51;101404.66;;;19.75;50.74
72925;BME280;61070;50.794;7.054;2022-09-01T08:26:20;101410.00;;;19.98;50.35
72925;BME280;61070;50.794;7.054;2022-09-01T08:28:45;101407.53;;;19.92;50.64
72925;BME280;61070;50.794;7.054;2022-09-01T08:31:14;101411.25;;;20.12;51.04
72925;BME280;61070;50.794;7.054;2022-09-01T08:33:40;101410.03;;;20.20;49.86
72925;BME280;61070;50.794;7.054;2022-09-01T08:36:08;101410.97;;;20.41;50.25
72925;BME280;61070;50.794;7.054;2022-09-01T08:38:34;101404.59;;;20.44;48.81
72925;BME280;61070;50.794;7.054;2022-09-01T08:41:00;101409.81;;;20.69;49.10
72925;BME280;61070;50.794;7.054;2022-09-01T08:46:26;101403.03;;;20.80;48.72
72925;BME280;61070;50.794;7.054;2022-09-01T08:48:56;101404.19;;;20.75;48.63
72925;BME280;61070;50.794;7.054;2022-09-01T08:51:43;101403.25;;;20.76;48.13
72925;BME280;61070;50.794;7.054;2022-09-01T08:57:07;101410.50;;;20.94;48.43
72925;BME280;61070;50.794;7.054;2022-09-01T08:59:35;101400.63;;;20.94;47.25
72925;BME280;61070;50.794;7.054;2022-09-01T09:02:05;101400.22;;;21.04;47.65
72925;BME280;61070;50.794;7.054;2022-09-01T09:04:46;101400.09;;;21.07;47.69
72925;BME280;61070;50.794;7.054;2022-09-01T09:10:09;101385.41;;;21.34;47.19
72925;BME280;61070;50.794;7.054;2022-09-01T09:15:35;101391.34;;;21.61;46.12
72925;BME280;61070;50.794;7.054;2022-09-01T09:21:18;101388.16;;;21.53;46.30
72925;BME280;61070;50.794;7.054;2022-09-01T09:23:50;101384.00;;;21.65;46.15
72925;BME280;61070;50.794;7.054;2022-09-01T09:26:18;101373.06;;;21.68;45.42
72925;BME280;61070;50.794;7.054;2022-09-01T09:28:45;101372.81;;;21.72;46.16
72925;BME280;61070;50.794;7.054;2022-09-01T09:31:35;101371.06;;;21.71;45.84
72925;BME280;61070;50.794;7.054;2022-09-01T09:34:35;101369.84;;;21.78;45.90
72925;BME280;61070;50.794;7.054;2022-09-01T09:37:25;101368.16;;;21.95;45.24
72925;BME280;61070;50.794;7.054;2022-09-01T09:42:33;101367.97;;;22.35;45.02
72925;BME280;61070;50.794;7.054;2022-09-01T09:44:59;101352.41;;;22.41;44.19
72925;BME280;61070;50.794;7.054;2022-09-01T09:47:37;101351.94;;;22.50;44.50
72925;BME280;61070;50.794;7.054;2022-09-01T09:50:22;101348.00;;;22.57;44.59
72925;BME280;61070;50.794;7.054;2022-09-01T09:52:50;101350.13;;;22.67;43.73
72925;BME280;61070;50.794;7.054;2022-09-01T09:55:23;101343.47;;;22.92;43.97
72925;BME280;61070;50.794;7.054;2022-09-01T09:57:53;101344.19;;;22.78;43.36
72925;BME280;61070;50.794;7.054;2022-09-01T10:00:27;101340.38;;;23.00;42.69
72925;BME280;61070;50.794;7.054;2022-09-01T10:07:57;101333.56;;;23.08;42.76
72925;BME280;61070;50.794;7.054;2022-09-01T10:10:43;101326.91;;;23.31;42.09
72925;BME280;61070;50.794;7.054;2022-09-01T10:13:14;101333.94;;;23.35;41.58
72925;BME280;61070;50.794;7.054;2022-09-01T10:15:42;101318.56;;;23.36;42.00
72925;BME280;61070;50.794;7.054;2022-09-01T10:18:14;101321.22;;;23.20;42.43
72925;BME280;61070;50.794;7.054;2022-09-01T10:20:58;101317.84;;;23.32;41.24
72925;BME280;61070;50.794;7.054;2022-09-01T10:23:25;101310.81;;;23.45;41.14
72925;BME280;61070;50.794;7.054;2022-09-01T10:25:55;101313.81;;;23.57;41.23
72925;BME280;61070;50.794;7.054;2022-09-01T10:28:23;101308.16;;;23.77;40.16
72925;BME280;61070;50.794;7.054;2022-09-01T10:30:51;101310.78;;;23.63;40.55
72925;BME280;61070;50.794;7.054;2022-09-01T10:33:19;101306.31;;;23.93;40.00
72925;BME280;61070;50.794;7.054;2022-09-01T10:35:51;101305.44;;;23.93;39.90
72925;BME280;61070;50.794;7.054;2022-09-01T10:38:25;101309.28;;;24.04;40.19
72925;BME280;61070;50.794;7.054;2022-09-01T10:40:53;101312.72;;;24.22;39.88
72925;BME280;61070;50.794;7.054;2022-09-01T10:48:50;101307.41;;;24.21;39.17
72925;BME280;61070;50.794;7.054;2022-09-01T11:04:22;101288.34;;;24.22;39.69
72925;BME280;61070;50.794;7.054;2022-09-01T11:14:25;101300.81;;;24.71;38.99
72925;BME280;61070;50.794;7.054;2022-09-01T11:17:10;101289.44;;;25.22;38.34
72925;BME280;61070;50.794;7.054;2022-09-01T11:19:40;101281.09;;;25.25;38.29
72925;BME280;61070;50.794;7.054;2022-09-01T11:27:03;101271.03;;;25.13;37.60
72925;BME280;61070;50.794;7.054;2022-09-01T11:29:54;101273.41;;;25.05;38.16
72925;BME280;61070;50.794;7.054;2022-09-01T11:32:23;101286.69;;;24.80;39.02
72925;BME280;61070;50.794;7.054;2022-09-01T11:34:50;101276.53;;;24.69;38.99
72925;BME280;61070;50.794;7.054;2022-09-01T11:37:20;101287.53;;;24.52;39.37
72925;BME280;61070;50.794;7.054;2022-09-01T11:39:49;101276.03;;;24.91;39.55
72925;BME280;61070;50.794;7.054;2022-09-01T11:47:39;101266.59;;;25.27;38.02
72925;BME280;61070;50.794;7.054;2022-09-01T11:52:40;101271.28;;;24.80;38.52
72925;BME280;61070;50.794;7.054;2022-09-01T11:55:06;101259.78;;;24.77;38.83
72925;BME280;61070;50.794;7.054;2022-09-01T11:57:34;101262.41;;;24.92;38.92
72925;BME280;61070;50.794;7.054;2022-09-01T12:00:05;101257.22;;;25.04;37.99
72925;BME280;61070;50.794;7.054;2022-09-01T12:02:34;101253.28;;;25.36;38.10
72925;BME280;61070;50.794;7.054;2022-09-01T12:05:01;101258.25;;;25.85;36.99
72925;BME280;61070;50.794;7.054;2022-09-01T12:07:37;101253.16;;;25.93;36.57
72925;BME280;61070;50.794;7.054;2022-09-01T12:10:11;101257.75;;;26.32;35.99
72925;BME280;61070;50.794;7.054;2022-09-01T12:12:38;101245.88;;;26.21;36.21
72925;BME280;61070;50.794;7.054;2022-09-01T12:15:07;101240.09;;;26.25;36.32
72925;BME280;61070;50.794;7.054;2022-09-01T12:17:34;101242.69;;;26.14;36.35
72925;BME280;61070;50.794;7.054;2022-09-01T12:22:47;101235.63;;;26.51;35.97
72925;BME280;61070;50.794;7.054;2022-09-01T12:25:30;101230.78;;;26.29;35.85
72925;BME280;61070;50.794;7.054;2022-09-01T12:28:02;101226.94;;;26.97;34.71
72925;BME280;61070;50.794;7.054;2022-09-01T12:30:28;101227.59;;;26.88;33.95
72925;BME280;61070;50.794;7.054;2022-09-01T12:32:54;101231.69;;;26.93;34.30
72925;BME280;61070;50.794;7.054;2022-09-01T12:35:24;101227.69;;;26.99;33.03
72925;BME280;61070;50.794;7.054;2022-09-01T12:37:50;101225.03;;;26.34;34.27
72925;BME280;61070;50.794;7.054;2022-09-01T12:40:31;101219.00;;;26.56;33.99
72925;BME280;61070;50.794;7.054;2022-09-01T12:42:57;101223.00;;;26.88;33.51
72925;BME280;61070;50.794;7.054;2022-09-01T12:45:39;101223.88;;;27.14;32.63
72925;BME280;61070;50.794;7.054;2022-09-01T12:48:05;101219.22;;;26.65;33.41
72925;BME280;61070;50.794;7.054;2022-09-01T12:50:34;101223.50;;;26.30;33.03
72925;BME280;61070;50.794;7.054;2022-09-01T12:53:00;101221.72;;;26.16;33.93
72925;BME280;61070;50.794;7.054;2022-09-01T12:55:31;101226.38;;;26.01;33.72
72925;BME280;61070;50.794;7.054;2022-09-01T12:58:08;101223.41;;;25.92;35.18
72925;BME280;61070;50.794;7.054;2022-09-01T13:00:36;101221.84;;;25.75;36.28
72925;BME280;61070;50.794;7.054;2022-09-01T13:03:17;101221.59;;;25.37;36.95
72925;BME280;61070;50.794;7.054;2022-09-01T13:05:56;101209.19;;;25.47;37.30
72925;BME280;61070;50.794;7.054;2022-09-01T13:08:26;101212.47;;;25.52;37.22
72925;BME280;61070;50.794;7.054;2022-09-01T13:11:05;101210.16;;;25.87;36.84
72925;BME280;61070;50.794;7.054;2022-09-01T13:13:31;101199.13;;;26.16;34.52
72925;BME280;61070;50.794;7.054;2022-09-01T13:16:00;101202.28;;;26.09;34.71
72925;BME280;61070;50.794;7.054;2022-09-01T13:18:29;101194.97;;;26.75;34.85
72925;BME280;61070;50.794;7.054;2022-09-01T13:20:55;101190.59;;;27.11;33.94
72925;BME280;61070;50.794;7.054;2022-09-01T13:23:22;101198.69;;;27.60;33.64
72925;BME280;61070;50.794;7.054;2022-09-01T13:25:47;101193.88;;;27.76;34.27
72925;BME280;61070;50.794;7.054;2022-09-01T13:28:15;101187.00;;;27.47;34.01
72925;BME280;61070;50.794;7.054;2022-09-01T13:30:42;101193.06;;;27.50;33.83
72925;BME280;61070;50.794;7.054;2022-09-01T13:33:09;101184.16;;;27.48;33.69
72925;BME280;61070;50.794;7.054;2022-09-01T13:35:37;101184.63;;;27.42;33.65
72925;BME280;61070;50.794;7.054;2022-09-01T13:38:02;101187.91;;;27.35;33.11
72925;BME280;61070;50.794;7.054;2022-09-01T13:40:28;101179.84;;;27.33;33.50
72925;BME280;61070;50.794;7.054;2022-09-01T13:42:53;101181.34;;;26.88;34.32
72925;BME280;61070;50.794;7.054;2022-09-01T13:45:21;101176.47;;;26.67;34.18
72925;BME280;61070;50.794;7.054;2022-09-01T13:47:49;101180.72;;;26.84;33.73
72925;BME280;61070;50.794;7.054;2022-09-01T13:50:16;101168.31;;;26.80;33.25
72925;BME280;61070;50.794;7.054;2022-09-01T13:52:47;101167.44;;;26.80;32.72
72925;BME280;61070;50.794;7.054;2022-09-01T13:55:18;101176.13;;;26.21;33.68
72925;BME280;61070;50.794;7.054;2022-09-01T13:57:43;101156.47;;;26.56;33.51
72925;BME280;61070;50.794;7.054;2022-09-01T14:00:13;101160.69;;;26.85;33.30
72925;BME280;61070;50.794;7.054;2022-09-01T14:02:43;101167.66;;;26.89;32.98
72925;BME280;61070;50.794;7.054;2022-09-01T14:05:19;101163.50;;;26.84;33.08